Time;durP1;ratioP1;P1;durP2;ratioP2;P2;SDS_P1;SDS_P2;PMS_P1;PMS_P2;Temp;Humidity;BMP_temperature;BMP_pressure;BME280_temperature;BME280_humidity;BME280_pressure;Samples;Min_cycle;Max_cycle;Signal;HPM_P1;HPM_P2
2023/12/17 00:01:10;;;;;;;6.43;3.97;;;3.70;1.00;;;;;;5207210;28;20244;-35
2023/12/17 00:03:42;;;;;;;6.90;3.28;;;3.70;1.00;;;;;;5200916;28;20229;-35
2023/12/17 00:06:13;;;;;;;6.20;3.70;;;3.60;1.00;;;;;;5198841;28;20244;-35
2023/12/17 00:08:51;;;;;;;9.23;4.60;;;3.50;1.00;;;;;;5220160;28;20366;-34
2023/12/17 00:11:22;;;;;;;6.57;3.25;;;3.40;1.00;;;;;;5228769;28;20347;-34
2023/12/17 00:13:56;;;;;;;9.05;3.67;;;3.30;28.20;;;;;;5218333;28;20032;-34
2023/12/17 00:16:33;;;;;;;8.43;3.38;;;3.40;42.60;;;;;;5201940;28;20425;-34
2023/12/17 00:19:09;;;;;;;5.80;3.03;;;3.50;1.00;;;;;;5200073;28;20040;-34
2023/12/17 00:21:42;;;;;;;5.05;3.45;;;3.50;1.00;;;;;;5199267;28;20112;-34
2023/12/17 00:24:13;;;;;;;4.72;3.60;;;3.70;1.00;;;;;;5200432;28;20060;-35
2023/12/17 00:26:45;;;;;;;6.65;3.42;;;3.70;1.00;;;;;;5217807;28;20020;-35
2023/12/17 00:29:16;;;;;;;4.45;3.28;;;4.10;1.00;;;;;;5201043;28;20245;-34
2023/12/17 00:31:47;;;;;;;5.28;3.58;;;4.30;1.00;;;;;;5213590;28;20042;-35
2023/12/17 00:34:20;;;;;;;3.83;2.63;;;4.40;1.00;;;;;;5218691;28;20024;-34
2023/12/17 00:36:54;;;;;;;6.20;3.27;;;4.30;1.00;;;;;;5219353;28;20025;-34
2023/12/17 00:39:26;;;;;;;5.15;3.08;;;4.30;1.00;;;;;;5223706;28;20637;-39
2023/12/17 00:42:02;;;;;;;6.53;3.40;;;4.20;1.00;;;;;;5223416;28;20041;-33
2023/12/17 00:44:33;;;;;;;6.85;4.05;;;4.20;1.00;;;;;;5219513;28;20632;-33
2023/12/17 00:47:05;;;;;;;5.05;3.03;;;4.20;1.00;;;;;;5207248;28;20040;-34
2023/12/17 00:49:38;;;;;;;4.47;2.85;;;4.10;1.00;;;;;;5217656;28;20118;-33
2023/12/17 00:52:14;;;;;;;5.30;2.73;;;4.50;1.00;;;;;;5218216;28;20031;-33
2023/12/17 00:54:51;;;;;;;3.85;2.63;;;4.60;1.00;;;;;;5217479;28;20269;-35
2023/12/17 00:57:24;;;;;;;4.25;2.78;;;4.70;1.00;;;;;;5218372;28;20037;-33
2023/12/17 00:59:56;;;;;;;4.07;2.72;;;4.80;1.00;;;;;;5218870;28;20028;-34
2023/12/17 01:02:27;;;;;;;6.88;3.05;;;5.00;1.00;;;;;;5213070;28;20033;-34
2023/12/17 01:05:01;;;;;;;3.55;2.85;;;5.00;1.00;;;;;;5219075;28;20355;-35
2023/12/17 01:07:32;;;;;;;4.97;3.00;;;4.90;1.00;;;;;;5219677;28;20032;-35
2023/12/17 01:10:04;;;;;;;4.20;2.85;;;4.90;1.00;;;;;;5218512;28;20206;-34
2023/12/17 01:12:36;;;;;;;5.47;2.75;;;5.10;1.00;;;;;;5219728;28;20051;-35
2023/12/17 01:15:10;;;;;;;7.85;3.28;;;5.10;1.00;;;;;;5220103;28;20039;-35
2023/12/17 01:17:42;;;;;;;4.97;2.88;;;5.30;1.00;;;;;;5217816;28;20024;-35
2023/12/17 01:20:18;;;;;;;4.28;2.72;;;5.40;1.00;;;;;;5213285;28;20035;-35
2023/12/17 01:22:52;;;;;;;5.45;3.15;;;5.50;1.00;;;;;;5218818;28;20025;-35
2023/12/17 01:25:23;;;;;;;3.53;2.20;;;5.60;1.00;;;;;;5222113;28;20033;-35
2023/12/17 01:27:57;;;;;;;3.85;2.33;;;5.60;99.90;;;;;;5222183;28;20256;-35
2023/12/17 01:30:28;;;;;;;5.47;3.30;;;5.60;99.90;;;;;;5202154;28;20225;-34
2023/12/17 01:33:04;;;;;;;4.78;2.40;;;5.60;99.90;;;;;;5220520;28;20045;-34
2023/12/17 01:35:36;;;;;;;4.18;2.88;;;5.50;99.90;;;;;;5206950;28;20029;-34
2023/12/17 01:38:07;;;;;;;4.47;2.40;;;5.50;99.90;;;;;;5203385;28;20044;-37
2023/12/17 01:40:41;;;;;;;5.78;3.10;;;5.70;99.90;;;;;;5219007;28;20033;-33
2023/12/17 01:43:12;;;;;;;5.27;3.37;;;5.70;99.90;;;;;;5220680;28;20103;-35
2023/12/17 01:45:48;;;;;;;4.75;2.88;;;5.70;99.90;;;;;;5217369;28;20273;-33
2023/12/17 01:48:21;;;;;;;3.70;2.80;;;5.80;99.90;;;;;;5219769;28;20359;-34
2023/12/17 01:50:54;;;;;;;3.55;2.50;;;5.80;99.90;;;;;;5221951;28;20029;-34
2023/12/17 01:53:26;;;;;;;8.65;3.58;;;5.80;99.90;;;;;;5203370;28;20362;-34
2023/12/17 01:55:58;;;;;;;5.50;3.30;;;5.70;99.90;;;;;;5221207;28;20025;-35
2023/12/17 01:58:30;;;;;;;5.32;3.45;;;5.70;99.90;;;;;;5220957;28;20199;-34
2023/12/17 02:01:04;;;;;;;5.65;3.33;;;5.70;99.90;;;;;;5219095;28;20024;-34
2023/12/17 02:03:40;;;;;;;6.57;2.60;;;5.70;99.90;;;;;;5220067;28;20039;-35
2023/12/17 02:06:11;;;;;;;4.68;2.78;;;5.70;99.90;;;;;;5220719;28;20040;-35
2023/12/17 02:08:43;;;;;;;4.55;3.60;;;5.60;99.90;;;;;;5207370;28;20048;-35
2023/12/17 02:11:14;;;;;;;4.53;3.00;;;5.60;99.90;;;;;;5215049;28;20371;-35
2023/12/17 02:13:50;;;;;;;4.68;3.35;;;5.60;99.90;;;;;;5219182;28;20035;-34
2023/12/17 02:16:21;;;;;;;7.85;3.33;;;5.40;99.90;;;;;;5213228;28;20024;-34
2023/12/17 02:19:01;;;;;;;7.18;3.60;;;5.40;99.90;;;;;;5215447;28;20025;-34
2023/12/17 02:21:33;;;;;;;6.85;3.50;;;5.40;99.90;;;;;;5218697;28;20039;-33
2023/12/17 02:24:05;;;;;;;5.50;3.05;;;5.40;99.90;;;;;;5220110;28;20029;-34
2023/12/17 02:26:36;;;;;;;5.47;3.53;;;5.30;99.90;;;;;;5216518;28;20366;-35
2023/12/17 02:29:08;;;;;;;6.13;3.60;;;5.30;99.90;;;;;;5220950;28;20047;-35
2023/12/17 02:31:39;;;;;;;4.47;3.38;;;5.30;99.90;;;;;;5218228;28;20029;-34
2023/12/17 02:34:10;;;;;;;4.88;3.17;;;5.30;99.90;;;;;;5202933;28;20317;-34
2023/12/17 02:36:44;;;;;;;4.32;3.08;;;5.30;99.90;;;;;;5221068;28;20313;-38
2023/12/17 02:39:15;;;;;;;11.00;3.60;;;5.30;99.90;;;;;;5221195;28;20033;-35
2023/12/17 02:41:51;;;;;;;6.05;3.72;;;5.30;99.90;;;;;;5217459;28;20032;-34
2023/12/17 02:44:25;;;;;;;5.28;3.25;;;5.40;99.90;;;;;;5220798;28;20041;-34
2023/12/17 02:46:57;;;;;;;4.93;2.97;;;5.30;99.90;;;;;;5217687;28;20241;-33
2023/12/17 02:49:31;;;;;;;5.82;3.95;;;5.40;99.90;;;;;;5218764;28;20029;-34
2023/12/17 02:52:03;;;;;;;7.90;3.80;;;5.40;99.90;;;;;;5215822;28;20029;-34
2023/12/17 02:54:37;;;;;;;4.30;3.35;;;5.30;99.90;;;;;;5219316;28;20051;-35
2023/12/17 02:57:12;;;;;;;5.45;3.25;;;5.30;99.90;;;;;;5205458;28;20229;-35
2023/12/17 02:59:46;;;;;;;;;;;5.40;99.90;;;;;;5204972;28;20032;-35
2023/12/17 03:02:17;;;;;;;4.93;3.03;;;5.40;99.90;;;;;;5217191;28;19915;-35
2023/12/17 03:04:54;;;;;;;5.32;3.42;;;5.50;99.90;;;;;;5217503;28;20048;-35
2023/12/17 03:07:25;;;;;;;6.32;2.97;;;5.40;99.90;;;;;;5197975;28;20037;-35
2023/12/17 03:09:58;;;;;;;5.25;3.10;;;5.30;99.90;;;;;;5200465;28;20338;-35
2023/12/17 03:12:30;;;;;;;5.75;2.95;;;5.30;99.90;;;;;;5219605;28;20176;-35
2023/12/17 03:15:01;;;;;;;6.35;3.35;;;5.30;99.90;;;;;;5207763;28;20151;-35
2023/12/17 03:17:35;;;;;;;6.15;2.90;;;5.40;99.90;;;;;;5212923;28;20372;-35
2023/12/17 03:20:10;;;;;;;7.03;2.85;;;5.40;99.90;;;;;;5217893;28;20156;-34
2023/12/17 03:22:43;;;;;;;3.92;3.00;;;5.50;99.90;;;;;;5235442;28;20242;-34
2023/12/17 03:25:17;;;;;;;5.15;2.78;;;5.50;99.90;;;;;;5219779;28;20025;-34
2023/12/17 03:27:53;;;;;;;4.13;3.08;;;5.50;99.90;;;;;;5220141;28;20036;-35
2023/12/17 03:30:28;;;;;;;4.13;2.80;;;5.40;99.90;;;;;;5216129;28;20040;-35
2023/12/17 03:33:01;;;;;;;;;;;5.40;99.90;;;;;;5204697;28;20039;-35
2023/12/17 03:35:32;;;;;;;4.63;2.63;;;5.40;99.90;;;;;;5219882;28;19912;-37
2023/12/17 03:38:11;;;;;;;4.60;2.63;;;5.30;99.90;;;;;;5218479;28;20033;-34
2023/12/17 03:40:42;;;;;;;4.50;2.70;;;5.20;99.90;;;;;;5211909;28;20275;-34
2023/12/17 03:43:16;;;;;;;3.20;2.65;;;5.20;99.90;;;;;;5219415;28;20033;-34
2023/12/17 03:45:49;;;;;;;4.27;2.90;;;5.40;99.90;;;;;;5214762;28;20033;-34
2023/12/17 03:48:21;;;;;;;2.97;2.40;;;5.30;99.90;;;;;;5216937;28;20258;-34
2023/12/17 03:50:53;;;;;;;4.25;2.35;;;5.30;99.90;;;;;;5212538;28;20270;-34
2023/12/17 03:53:33;;;;;;;4.63;3.05;;;5.40;99.90;;;;;;5213583;28;20366;-36
2023/12/17 03:56:12;;;;;;;3.90;2.30;;;5.40;99.90;;;;;;5223222;28;20055;-33
2023/12/17 03:58:50;;;;;;;3.67;2.30;;;5.50;99.90;;;;;;5230539;28;20031;-34
2023/12/17 04:01:24;;;;;;;3.65;2.38;;;5.40;99.90;;;;;;5211599;28;20032;-35
2023/12/17 04:03:59;;;;;;;3.35;2.03;;;5.50;99.90;;;;;;5223245;28;20021;-34
2023/12/17 04:06:32;;;;;;;3.75;2.55;;;5.50;99.90;;;;;;5220549;28;20035;-35
2023/12/17 04:09:04;;;;;;;4.22;2.22;;;5.50;99.90;;;;;;5212988;28;20051;-38
2023/12/17 04:11:37;;;;;;;2.67;2.05;;;5.30;99.90;;;;;;5201757;28;20033;-34
2023/12/17 04:14:08;;;;;;;2.95;2.13;;;5.10;99.90;;;;;;5218930;28;20041;-34
2023/12/17 04:16:42;;;;;;;2.83;2.10;;;5.10;99.90;;;;;;5215455;28;20060;-33
2023/12/17 04:19:16;;;;;;;2.83;1.98;;;5.10;99.90;;;;;;5217980;28;20029;-34
2023/12/17 04:21:48;;;;;;;3.42;2.03;;;5.00;99.90;;;;;;5219768;28;20047;-35
2023/12/17 04:24:31;;;;;;;2.10;1.80;;;4.90;99.90;;;;;;5216775;28;20033;-34
2023/12/17 04:27:06;;;;;;;2.20;1.73;;;5.10;99.90;;;;;;5214466;28;20020;-34
2023/12/17 04:29:41;;;;;;;2.35;2.05;;;5.20;99.90;;;;;;5214333;28;20230;-34
2023/12/17 04:32:12;;;;;;;2.85;2.10;;;5.20;99.90;;;;;;5211650;28;20371;-34
2023/12/17 04:34:46;;;;;;;2.88;1.98;;;5.20;99.90;;;;;;5215253;28;20047;-34
2023/12/17 04:37:22;;;;;;;;;;;5.20;99.90;;;;;;5209228;28;20030;-35
2023/12/17 04:39:53;;;;;;;2.45;1.70;;;5.10;99.90;;;;;;5215696;28;19909;-34
2023/12/17 04:42:25;;;;;;;1.90;1.70;;;5.00;99.90;;;;;;5217231;28;20348;-34
2023/12/17 04:44:57;;;;;;;1.40;1.30;;;5.00;99.90;;;;;;5217537;28;20032;-34
2023/12/17 04:47:30;;;;;;;2.70;1.80;;;4.80;99.90;;;;;;5211572;28;20043;-34
2023/12/17 04:50:02;;;;;;;3.33;1.92;;;4.60;99.90;;;;;;5218570;28;20040;-34
2023/12/17 04:52:40;;;;;;;2.60;1.60;;;4.50;99.90;;;;;;5219249;28;20033;-35
2023/12/17 04:55:14;;;;;;;1.95;1.35;;;4.30;99.90;;;;;;5218553;28;20309;-35
2023/12/17 04:57:45;;;;;;;2.95;1.60;;;4.30;99.90;;;;;;5217909;28;20202;-35
2023/12/17 05:00:22;;;;;;;1.48;1.38;;;4.30;99.90;;;;;;5214753;28;20040;-34
2023/12/17 05:02:56;;;;;;;3.05;2.10;;;4.40;99.90;;;;;;5210868;28;20032;-34
2023/12/17 05:05:27;;;;;;;2.72;1.88;;;4.40;99.90;;;;;;5217757;28;20329;-34
2023/12/17 05:08:03;;;;;;;1.45;1.30;;;4.30;99.90;;;;;;5219085;28;20028;-34
2023/12/17 05:10:36;;;;;;;2.75;1.60;;;4.30;99.90;;;;;;5220022;28;20032;-34
2023/12/17 05:13:08;;;;;;;1.50;1.17;;;4.30;99.90;;;;;;5217272;28;20473;-35
2023/12/17 05:15:39;;;;;;;1.77;1.45;;;4.30;99.90;;;;;;5216714;28;20326;-34
2023/12/17 05:18:10;;;;;;;1.60;1.50;;;4.40;99.90;;;;;;5216837;28;20037;-35
2023/12/17 05:20:49;;;;;;;3.25;1.30;;;4.60;99.90;;;;;;5196276;28;20043;-35
2023/12/17 05:23:21;;;;;;;1.90;1.30;;;4.60;99.90;;;;;;5210714;28;20025;-34
2023/12/17 05:25:52;;;;;;;2.38;1.75;;;4.80;99.90;;;;;;5219027;28;20033;-35
2023/12/17 05:28:24;;;;;;;3.35;1.45;;;5.00;99.90;;;;;;5218760;28;20041;-35
2023/12/17 05:30:55;;;;;;;2.58;1.40;;;5.00;99.90;;;;;;5214701;28;20031;-35
2023/12/17 05:33:26;;;;;;;3.05;1.48;;;5.00;99.90;;;;;;5217915;28;20032;-35
2023/12/17 05:36:00;;;;;;;2.08;1.30;;;5.10;99.90;;;;;;5204161;28;20033;-35
2023/12/17 05:38:31;;;;;;;2.28;1.50;;;5.20;99.90;;;;;;5200501;28;20045;-35
2023/12/17 05:41:08;;;;;;;1.60;1.20;;;5.40;99.90;;;;;;5216076;28;20040;-35
2023/12/17 05:43:41;;;;;;;1.95;1.38;;;5.30;99.90;;;;;;5216353;28;20276;-35
2023/12/17 05:46:12;;;;;;;1.40;1.30;;;5.20;99.90;;;;;;5216086;28;20037;-34
2023/12/17 05:48:44;;;;;;;1.15;1.02;;;5.00;99.90;;;;;;5218823;28;20037;-35
2023/12/17 05:51:18;;;;;;;1.73;1.55;;;5.00;99.90;;;;;;5217935;28;20044;-35
2023/12/17 05:53:52;;;;;;;1.23;1.13;;;5.10;99.90;;;;;;5209976;28;20044;-35
2023/12/17 05:56:25;;;;;;;3.00;1.60;;;5.10;99.90;;;;;;5214920;28;20067;-35
2023/12/17 05:58:59;;;;;;;2.95;1.63;;;5.00;99.90;;;;;;5217938;28;20313;-34
2023/12/17 06:01:32;;;;;;;1.47;1.30;;;5.00;99.90;;;;;;5225371;28;20346;-34
2023/12/17 06:04:04;;;;;;;2.17;1.60;;;4.90;99.90;;;;;;5222914;28;20032;-35
2023/12/17 06:06:35;;;;;;;2.72;1.40;;;4.90;99.90;;;;;;5215980;28;20033;-37
2023/12/17 06:09:07;;;;;;;1.90;1.40;;;4.90;99.90;;;;;;5221647;28;20035;-34
2023/12/17 06:11:38;;;;;;;3.92;2.67;;;4.80;99.90;;;;;;5219834;28;20028;-34
2023/12/17 06:14:13;;;;;;;2.33;2.13;;;4.50;99.90;;;;;;5220975;28;20047;-34
2023/12/17 06:16:45;;;;;;;9.70;5.72;;;4.20;99.90;;;;;;5219484;28;20051;-33
2023/12/17 06:19:18;;;;;;;4.35;2.80;;;4.00;99.90;;;;;;5220504;28;20039;-33
2023/12/17 06:21:51;;;;;;;13.65;8.70;;;3.60;99.90;;;;;;5202481;28;20028;-34
2023/12/17 06:24:22;;;;;;;8.18;4.40;;;3.50;99.90;;;;;;5216021;28;20044;-33
2023/12/17 06:26:53;;;;;;;6.85;4.28;;;3.30;99.90;;;;;;5220383;28;20036;-34
2023/12/17 06:29:25;;;;;;;7.45;3.05;;;3.10;99.90;;;;;;5207679;28;20238;-33
2023/12/17 06:31:56;;;;;;;4.68;3.13;;;3.00;99.90;;;;;;5218898;28;20304;-35
2023/12/17 06:34:27;;;;;;;7.32;4.07;;;2.80;1.00;;;;;;5219807;28;20357;-35
2023/12/17 06:37:01;;;;;;;7.65;3.33;;;2.70;1.00;;;;;;5219367;28;20040;-34
2023/12/17 06:39:35;;;;;;;4.20;3.17;;;2.70;1.00;;;;;;5213361;28;20036;-34
2023/12/17 06:42:10;;;;;;;;;;;2.60;1.00;;;;;;5217597;28;20571;-35
2023/12/17 06:44:44;;;;;;;5.35;3.13;;;2.50;1.00;;;;;;5203201;28;20237;-33
2023/12/17 06:47:18;;;;;;;4.95;3.83;;;2.30;1.00;;;;;;5218198;28;20049;-33
2023/12/17 06:49:49;;;;;;;5.88;3.30;;;2.20;1.00;;;;;;5221578;28;20356;-35
2023/12/17 06:52:21;;;;;;;7.85;3.28;;;2.10;99.90;;;;;;5221484;28;20107;-35
2023/12/17 06:54:52;;;;;;;7.50;3.13;;;2.10;99.90;;;;;;5214505;28;20360;-33
2023/12/17 06:57:28;;;;;;;4.95;2.78;;;1.90;1.00;;;;;;5218772;28;20325;-35
2023/12/17 07:00:05;;;;;;;5.20;2.60;;;1.90;1.00;;;;;;5220344;28;20297;-35
2023/12/17 07:02:39;;;;;;;7.38;4.03;;;1.80;1.00;;;;;;5219748;28;20037;-35
2023/12/17 07:05:12;;;;;;;117.75;39.33;;;1.80;1.00;;;;;;5221766;28;20213;-38
2023/12/17 07:07:44;;;;;;;24.47;10.90;;;1.90;99.90;;;;;;5221338;28;20286;-35
2023/12/17 07:10:17;;;;;;;41.13;16.52;;;1.90;1.00;;;;;;5213429;28;20491;-35
2023/12/17 07:12:49;;;;;;;15.68;9.20;;;1.90;1.00;;;;;;5219767;28;20469;-35
2023/12/17 07:15:20;;;;;;;11.52;6.03;;;2.00;80.00;;;;;;5218479;28;20024;-35
2023/12/17 07:17:51;;;;;;;64.32;22.30;;;2.10;99.90;;;;;;5220518;28;20036;-35
2023/12/17 07:20:25;;;;;;;17.40;8.10;;;2.20;99.90;;;;;;5221916;28;20029;-34
2023/12/17 07:23:02;;;;;;;16.70;7.63;;;2.50;57.00;;;;;;5219670;28;20029;-34
2023/12/17 07:25:33;;;;;;;11.27;6.00;;;3.10;1.00;;;;;;5219363;28;20032;-34
2023/12/17 07:28:06;;;;;;;6.95;4.40;;;3.40;1.00;;;;;;5211063;28;20038;-34
2023/12/17 07:30:43;;;;;;;5.63;2.50;;;3.70;99.90;;;;;;5200458;28;20452;-35
2023/12/17 07:33:14;;;;;;;10.23;4.20;;;4.20;99.90;;;;;;5212574;28;20337;-33
2023/12/17 07:35:49;;;;;;;10.90;3.97;;;4.70;99.90;;;;;;5221205;28;20256;-33
2023/12/17 07:38:20;;;;;;;2.22;1.98;;;5.00;99.90;;;;;;5211822;28;20036;-33
2023/12/17 07:40:51;;;;;;;2.53;1.33;;;5.20;99.90;;;;;;5211341;28;20035;-33
2023/12/17 07:43:22;;;;;;;4.13;2.63;;;5.30;99.90;;;;;;5220413;28;20425;-34
2023/12/17 07:45:54;;;;;;;2.80;2.40;;;5.30;99.90;;;;;;5206777;28;20045;-34
2023/12/17 07:48:25;;;;;;;4.07;3.13;;;5.10;99.90;;;;;;5192066;28;20056;-35
2023/12/17 07:51:01;;;;;;;6.78;4.70;;;5.00;99.90;;;;;;5208133;28;20041;-35
2023/12/17 07:53:32;;;;;;;6.82;4.20;;;5.00;99.90;;;;;;5216484;28;20048;-37
2023/12/17 07:56:03;;;;;;;6.40;3.60;;;4.90;99.90;;;;;;5198067;28;20493;-37
2023/12/17 07:58:35;;;;;;;4.90;3.33;;;4.80;99.90;;;;;;5210850;28;20035;-37
2023/12/17 08:01:09;;;;;;;5.53;3.85;;;4.80;99.90;;;;;;5210827;28;20037;-38
2023/12/17 08:03:43;;;;;;;5.65;3.75;;;4.70;99.90;;;;;;5227536;28;20115;-37
2023/12/17 08:06:14;;;;;;;5.13;3.72;;;4.70;99.90;;;;;;5201240;28;20325;-38
2023/12/17 08:08:47;;;;;;;6.80;3.40;;;4.60;99.90;;;;;;5214475;28;20045;-37
2023/12/17 08:11:24;;;;;;;4.78;3.38;;;4.50;99.90;;;;;;5209529;28;20041;-37
2023/12/17 08:13:56;;;;;;;5.28;3.25;;;4.50;99.90;;;;;;5214125;28;20314;-38
2023/12/17 08:16:27;;;;;;;11.18;4.00;;;4.60;99.90;;;;;;5211724;28;20045;-37
2023/12/17 08:19:01;;;;;;;6.68;3.55;;;4.50;99.90;;;;;;5219843;28;20020;-37
2023/12/17 08:21:34;;;;;;;4.60;3.45;;;4.60;99.90;;;;;;5220018;28;20036;-37
2023/12/17 08:24:08;;;;;;;6.35;4.38;;;4.70;99.90;;;;;;5219166;28;20033;-37
2023/12/17 08:26:42;;;;;;;5.88;4.28;;;4.80;1.00;;;;;;5215933;28;20333;-37
2023/12/17 08:29:13;;;;;;;8.45;3.75;;;4.80;99.90;;;;;;5218957;28;20041;-37
2023/12/17 08:31:45;;;;;;;6.00;3.92;;;4.80;1.00;;;;;;5205769;28;20525;-37
2023/12/17 08:34:19;;;;;;;5.15;3.58;;;4.90;1.00;;;;;;5212866;28;20048;-37
2023/12/17 08:36:52;;;;;;;8.50;4.38;;;5.00;99.90;;;;;;5212582;28;20035;-37
2023/12/17 08:39:25;;;;;;;6.60;4.78;;;5.20;1.00;;;;;;5212602;28;20261;-37
2023/12/17 08:41:57;;;;;;;10.25;4.82;;;5.40;1.00;;;;;;5215381;28;20032;-36
2023/12/17 08:44:28;;;;;;;10.10;5.47;;;5.60;1.00;;;;;;5214628;28;20025;-39
2023/12/17 08:47:11;;;;;;;11.40;5.70;;;5.80;1.00;;;;;;5209270;28;20329;-37
2023/12/17 08:49:42;;;;;;;10.57;5.85;;;6.00;1.00;;;;;;5202137;28;20033;-39
2023/12/17 08:52:16;;;;;;;7.90;5.18;;;6.20;1.00;;;;;;5208811;28;20033;-39
2023/12/17 08:54:47;;;;;;;12.60;5.13;;;6.40;1.00;;;;;;5206044;28;20040;-37
2023/12/17 08:57:18;;;;;;;7.18;3.92;;;6.60;1.00;;;;;;5202387;28;20028;-39
2023/12/17 08:59:52;;;;;;;4.18;2.92;;;6.70;1.00;;;;;;5214808;28;20029;-37
2023/12/17 09:02:28;;;;;;;;;;;7.00;99.90;;;;;;5209939;28;20032;-37
2023/12/17 09:05:02;;;;;;;5.15;3.28;;;7.50;99.90;;;;;;5205544;28;19924;-34
2023/12/17 09:07:34;;;;;;;3.33;2.20;;;7.70;99.90;;;;;;5209112;28;20682;-34
2023/12/17 09:10:06;;;;;;;3.28;2.30;;;7.50;99.90;;;;;;5214296;28;20229;-35
2023/12/17 09:12:39;;;;;;;3.72;2.65;;;7.60;99.90;;;;;;5217170;28;20044;-35
2023/12/17 09:15:11;;;;;;;3.53;3.15;;;7.60;99.90;;;;;;5210342;28;20036;-34
2023/12/17 09:17:43;;;;;;;4.38;3.08;;;7.50;99.90;;;;;;5198101;28;20021;-34
2023/12/17 09:20:14;;;;;;;4.18;2.67;;;7.50;99.90;;;;;;5201958;28;20036;-34
2023/12/17 09:22:53;;;;;;;4.78;3.00;;;7.50;99.90;;;;;;5206582;28;20241;-35
2023/12/17 09:25:24;;;;;;;5.00;2.92;;;7.60;99.90;;;;;;5218974;28;20033;-38
2023/12/17 09:27:56;;;;;;;4.00;2.97;;;7.80;99.90;;;;;;5216534;28;20335;-35
2023/12/17 09:30:29;;;;;;;4.22;2.67;;;8.10;1.00;;;;;;5215553;28;20054;-34
2023/12/17 09:33:00;;;;;;;4.38;3.20;;;8.30;1.00;;;;;;5215504;28;20086;-33
2023/12/17 09:35:32;;;;;;;7.60;3.47;;;8.40;1.00;;;;;;5205897;28;20030;-34
2023/12/17 09:38:04;;;;;;;5.25;3.45;;;8.20;1.00;;;;;;5219770;28;20029;-34
2023/12/17 09:40:36;;;;;;;4.38;3.50;;;8.60;1.00;;;;;;5219606;28;20202;-34
2023/12/17 09:43:12;;;;;;;7.00;4.03;;;8.90;1.00;;;;;;5218228;28;20047;-34
2023/12/17 09:45:49;;;;;;;5.78;4.03;;;9.10;1.00;;;;;;5214254;28;20213;-35
2023/12/17 09:48:23;;;;;;;5.40;3.20;;;9.60;1.00;;;;;;5218381;28;20218;-34
2023/12/17 09:50:55;;;;;;;;;;;9.50;1.00;;;;;;5218686;28;20029;-34
2023/12/17 09:53:32;;;;;;;4.47;2.75;;;9.70;1.00;;;;;;5219037;28;19934;-34
2023/12/17 09:56:04;;;;;;;4.80;3.10;;;9.60;1.00;;;;;;5211846;28;20036;-34
2023/12/17 09:58:35;;;;;;;8.15;3.20;;;10.20;1.00;;;;;;5214748;28;20274;-34
2023/12/17 10:01:09;;;;;;;4.10;2.95;;;10.60;1.00;;;;;;5217109;28;20025;-34
2023/12/17 10:03:45;;;;;;;3.80;3.35;;;10.90;1.00;;;;;;5214761;28;20210;-34
2023/12/17 10:06:19;;;;;;;3.28;2.45;;;10.80;99.90;;;;;;5202128;28;20047;-34
2023/12/17 10:08:51;;;;;;;3.83;2.47;;;10.80;1.00;;;;;;5209259;28;20029;-34
2023/12/17 10:11:23;;;;;;;4.25;2.88;;;11.00;1.00;;;;;;5209265;28;20029;-34
2023/12/17 10:13:57;;;;;;;4.70;2.88;;;11.10;99.90;;;;;;5217952;28;20142;-34
2023/12/17 10:16:32;;;;;;;4.97;3.00;;;11.60;57.80;;;;;;5216542;28;20029;-33
2023/12/17 10:19:08;;;;;;;3.75;2.78;;;11.70;99.90;;;;;;5221285;28;20029;-33
2023/12/17 10:21:44;;;;;;;4.53;3.13;;;11.60;99.90;;;;;;5207299;28;20450;-33
2023/12/17 10:24:15;;;;;;;4.05;2.75;;;12.00;99.90;;;;;;5220481;28;20024;-39
2023/12/17 10:26:48;;;;;;;3.95;2.92;;;12.70;99.90;;;;;;5218368;28;20039;-33
2023/12/17 10:29:21;;;;;;;6.07;3.50;;;13.60;1.00;;;;;;5210350;28;20325;-33
2023/12/17 10:31:55;;;;;;;5.50;3.50;;;13.00;1.00;;;;;;5211707;28;20313;-33
2023/12/17 10:34:30;;;;;;;5.03;3.25;;;13.20;99.90;;;;;;5212403;28;20424;-35
2023/12/17 10:37:03;;;;;;;5.90;3.47;;;13.70;1.00;;;;;;5217334;28;20324;-34
2023/12/17 10:39:36;;;;;;;4.93;3.33;;;14.10;1.00;;;;;;5211315;28;20055;-34
2023/12/17 10:42:11;;;;;;;4.55;3.10;;;14.00;99.90;;;;;;5198568;28;20024;-33
2023/12/17 10:44:47;;;;;;;5.30;3.30;;;13.90;1.00;;;;;;5222080;28;21454;-33
2023/12/17 10:47:25;;;;;;;4.78;3.20;;;14.50;1.00;;;;;;5227645;28;20028;-33
2023/12/17 10:49:57;;;;;;;4.25;3.33;;;15.00;1.00;;;;;;5226908;28;20056;-34
2023/12/17 10:52:29;;;;;;;3.80;3.08;;;15.80;99.90;;;;;;5224755;28;20214;-32
2023/12/17 10:55:00;;;;;;;3.25;2.88;;;16.20;99.90;;;;;;5230148;28;20066;-32
2023/12/17 10:57:35;;;;;;;3.63;3.20;;;16.70;1.00;;;;;;5226205;28;20248;-36
2023/12/17 11:00:13;;;;;;;3.85;3.08;;;14.90;1.00;;;;;;5215672;28;20025;-34
2023/12/17 11:02:48;;;;;;;8.52;2.35;;;14.80;1.00;;;;;;5211919;28;20257;-34
2023/12/17 11:05:19;;;;;;;4.43;2.78;;;14.80;99.90;;;;;;5210473;28;20341;-34
2023/12/17 11:07:50;;;;;;;3.47;2.55;;;15.00;99.90;;;;;;5216065;28;20036;-33
2023/12/17 11:10:25;;;;;;;4.10;2.88;;;14.30;99.90;;;;;;5209299;28;20249;-33
2023/12/17 11:12:59;;;;;;;3.80;2.85;;;13.50;99.90;;;;;;5214090;28;20043;-33
2023/12/17 11:15:31;;;;;;;3.30;2.67;;;13.20;99.90;;;;;;5224803;28;20028;-34
2023/12/17 11:18:02;;;;;;;3.72;2.78;;;14.20;99.90;;;;;;5221428;28;20033;-34
2023/12/17 11:20:40;;;;;;;2.88;2.58;;;14.90;99.90;;;;;;5212027;28;20039;-33
2023/12/17 11:23:14;;;;;;;3.22;2.50;;;14.70;1.00;;;;;;5215908;28;20029;-38
2023/12/17 11:25:48;;;;;;;3.67;2.78;;;14.10;99.90;;;;;;5216665;28;20021;-35
2023/12/17 11:28:25;;;;;;;2.75;2.53;;;13.90;99.90;;;;;;5218025;28;20029;-37
2023/12/17 11:30:57;;;;;;;3.47;2.53;;;13.40;99.90;;;;;;5207935;28;20029;-34
2023/12/17 11:33:32;;;;;;;3.70;2.72;;;14.00;99.90;;;;;;5204242;28;20030;-34
2023/12/17 11:36:11;;;;;;;2.67;2.22;;;14.30;99.90;;;;;;5217585;28;20028;-34
2023/12/17 11:38:44;;;;;;;4.80;2.70;;;14.40;99.90;;;;;;5219912;28;20021;-35
2023/12/17 11:41:15;;;;;;;4.03;2.72;;;14.80;1.00;;;;;;5214699;28;20039;-34
2023/12/17 11:43:47;;;;;;;2.58;2.38;;;14.40;99.90;;;;;;5219045;28;20035;-34
2023/12/17 11:46:19;;;;;;;2.40;2.20;;;14.80;99.90;;;;;;5217616;28;20220;-35
2023/12/17 11:48:51;;;;;;;2.58;2.28;;;15.20;1.00;;;;;;5220117;28;20033;-34
2023/12/17 11:51:27;;;;;;;2.63;2.42;;;15.80;99.90;;;;;;5213280;28;20033;-34
2023/12/17 11:54:01;;;;;;;7.18;2.58;;;16.70;99.90;;;;;;5209576;28;20043;-33
2023/12/17 11:56:40;;;;;;;5.85;2.80;;;16.80;99.90;;;;;;5196747;28;20355;-34
2023/12/17 11:59:14;;;;;;;3.55;2.55;;;16.70;99.90;;;;;;5217747;28;20359;-35
2023/12/17 12:01:48;;;;;;;3.55;2.75;;;15.90;99.90;;;;;;5200614;28;20581;-33
2023/12/17 12:04:20;;;;;;;3.83;2.60;;;16.10;99.90;;;;;;5212629;28;20322;-38
2023/12/17 12:06:54;;;;;;;2.50;2.20;;;15.60;99.90;;;;;;5211483;28;20024;-34
2023/12/17 12:09:26;;;;;;;3.53;2.72;;;15.40;99.90;;;;;;5208394;28;20044;-34
2023/12/17 12:11:59;;;;;;;2.30;2.10;;;14.80;99.90;;;;;;5207417;28;20029;-34
2023/12/17 12:14:31;;;;;;;4.10;2.85;;;14.90;99.90;;;;;;5211119;28;20075;-34
2023/12/17 12:17:02;;;;;;;4.22;2.65;;;14.00;99.90;;;;;;5204768;28;20028;-34
2023/12/17 12:19:47;;;;;;;2.85;2.38;;;15.20;99.90;;;;;;5217316;28;20304;-34
2023/12/17 12:22:27;;;;;;;2.97;2.53;;;16.40;99.90;;;;;;5213176;28;20045;-36
2023/12/17 12:24:59;;;;;;;2.55;2.10;;;15.50;99.90;;;;;;5216994;28;20033;-33
2023/12/17 12:27:30;;;;;;;2.50;2.28;;;15.80;99.90;;;;;;5217420;28;20325;-33
2023/12/17 12:30:07;;;;;;;2.47;2.28;;;15.90;99.90;;;;;;5217072;28;20039;-34
2023/12/17 12:32:41;;;;;;;2.40;2.17;;;15.60;99.90;;;;;;5211609;28;20213;-33
2023/12/17 12:35:29;;;;;;;2.92;2.05;;;15.70;99.90;;;;;;5217982;28;20035;-33
2023/12/17 12:38:03;;;;;;;2.38;2.08;;;16.40;99.90;;;;;;5216455;28;20039;-33
2023/12/17 12:40:34;;;;;;;;;;;17.00;99.90;;;;;;5215177;28;20033;-34
2023/12/17 12:43:07;;;;;;;2.25;2.05;;;16.40;99.90;;;;;;5210290;28;19927;-34
2023/12/17 12:45:38;;;;;;;2.05;1.90;;;16.80;99.90;;;;;;5215493;28;20013;-34
2023/12/17 12:48:22;;;;;;;2.72;2.20;;;16.70;99.90;;;;;;5218868;28;20031;-34
2023/12/17 12:50:53;;;;;;;4.07;2.45;;;15.80;99.90;;;;;;5215683;28;20063;-34
2023/12/17 12:53:29;;;;;;;2.88;2.30;;;16.30;99.90;;;;;;5208171;28;20325;-34
2023/12/17 12:56:02;;;;;;;3.00;2.45;;;16.70;99.90;;;;;;5210825;28;20033;-36
2023/12/17 12:58:33;;;;;;;2.90;2.30;;;16.40;99.90;;;;;;5216281;28;20033;-34
2023/12/17 13:01:09;;;;;;;3.15;2.20;;;17.50;99.90;;;;;;5204481;28;20355;-33
2023/12/17 13:03:43;;;;;;;2.40;2.05;;;17.00;99.90;;;;;;5211319;28;20037;-33
2023/12/17 13:06:15;;;;;;;3.55;2.50;;;17.60;99.90;;;;;;5196695;28;20049;-34
2023/12/17 13:08:51;;;;;;;2.90;2.30;;;17.80;99.90;;;;;;5215095;28;20025;-33
2023/12/17 13:11:27;;;;;;;2.58;2.38;;;17.40;94.60;;;;;;5186309;28;20036;-33
2023/12/17 13:13:59;;;;;;;4.53;2.58;;;17.30;99.90;;;;;;5193552;28;20021;-34
2023/12/17 13:16:36;;;;;;;3.15;2.38;;;17.20;99.90;;;;;;5193743;28;20510;-34
2023/12/17 13:19:08;;;;;;;2.65;2.35;;;17.30;99.90;;;;;;5195086;28;20258;-33
2023/12/17 13:21:41;;;;;;;3.40;2.70;;;16.40;99.90;;;;;;5211052;28;20030;-34
2023/12/17 13:24:13;;;;;;;4.43;2.42;;;16.00;99.90;;;;;;5184875;28;20033;-34
2023/12/17 13:26:46;;;;;;;3.03;2.72;;;16.20;99.90;;;;;;5192248;28;20048;-32
2023/12/17 13:29:20;;;;;;;2.92;2.33;;;15.60;99.90;;;;;;5197729;28;20044;-33